createdAt,value
2018-08-28T00:01:18.678Z,68.25
2018-08-28T00:03:46.700Z,68.26
2018-08-28T00:06:15.190Z,68.19
2018-08-28T00:08:43.579Z,68.91
2018-08-28T00:11:13.400Z,68.72
2018-08-28T00:13:41.470Z,68.43
2018-08-28T00:16:09.525Z,68.89
2018-08-28T00:18:37.588Z,69.04
2018-08-28T00:21:05.658Z,68.31
2018-08-28T00:23:33.798Z,68.76
2018-08-28T00:26:01.919Z,68.56
2018-08-28T00:28:31.053Z,68.54
2018-08-28T00:31:05.445Z,68.13
2018-08-28T00:33:33.592Z,67.78
2018-08-28T00:36:01.898Z,67.53
2018-08-28T00:38:30.272Z,68.04
2018-08-28T00:40:58.578Z,67.48
2018-08-28T00:43:26.945Z,67.63
2018-08-28T00:45:55.413Z,67.73
2018-08-28T00:48:23.492Z,67.42
2018-08-28T00:50:52.088Z,68.25
2018-08-28T00:53:25.521Z,68.12
2018-08-28T00:55:53.648Z,68.14
2018-08-28T00:58:22.249Z,68.18
2018-08-28T01:00:50.664Z,67.83
2018-08-28T01:03:18.752Z,68.07
2018-08-28T01:05:47.125Z,68.12
2018-08-28T01:08:15.285Z,68.30
2018-08-28T01:10:43.725Z,67.95
2018-08-28T01:13:12.155Z,67.92
2018-08-28T01:15:40.606Z,68.37
2018-08-28T01:18:08.766Z,68.21
2018-08-28T01:20:36.887Z,67.86
2018-08-28T01:23:04.972Z,67.95
2018-08-28T01:25:33.021Z,67.94
2018-08-28T01:28:01.132Z,68.53
2018-08-28T01:30:35.952Z,68.30
2018-08-28T01:33:05.790Z,68.36
2018-08-28T01:35:34.630Z,68.09
2018-08-28T01:38:03.023Z,68.08
2018-08-28T01:40:31.802Z,68.25
2018-08-28T01:43:00.160Z,68.56
2018-08-28T01:45:28.249Z,68.03
2018-08-28T01:47:56.285Z,68.79
2018-08-28T01:50:24.760Z,68.40
2018-08-28T01:52:52.869Z,68.60
2018-08-28T01:55:21.405Z,69.42
2018-08-28T01:57:49.451Z,68.85
2018-08-28T02:00:17.667Z,68.67
2018-08-28T02:02:45.852Z,68.37
2018-08-28T02:05:14.179Z,68.45
2018-08-28T02:07:42.772Z,68.40
2018-08-28T02:10:11.023Z,68.95
2018-08-28T02:12:39.187Z,68.99
2018-08-28T02:15:07.371Z,69.18
2018-08-28T02:17:35.447Z,69.53
2018-08-28T02:20:03.550Z,69.08
2018-08-28T02:22:31.753Z,69.28
2018-08-28T02:24:59.827Z,69.66
2018-08-28T02:27:28.192Z,69.36
2018-08-28T02:29:56.457Z,68.77
2018-08-28T02:32:24.739Z,68.95
2018-08-28T02:34:52.928Z,69.06
2018-08-28T02:37:21.180Z,69.79
2018-08-28T02:39:49.343Z,69.36
2018-08-28T02:42:17.410Z,69.68
2018-08-28T02:44:45.572Z,69.83
2018-08-28T02:47:15.138Z,70.12
2018-08-28T02:49:43.295Z,69.28
2018-08-28T02:52:11.653Z,69.74
2018-08-28T02:54:39.953Z,69.89
2018-08-28T02:57:08.619Z,69.90
2018-08-28T02:59:36.983Z,69.91
2018-08-28T03:02:05.580Z,70.25
2018-08-28T03:04:33.960Z,69.70
2018-08-28T03:07:02.425Z,69.68
2018-08-28T03:09:30.657Z,70.26
2018-08-28T03:11:58.783Z,69.96
2018-08-28T03:14:26.896Z,69.72
2018-08-28T03:16:55.147Z,70.05
2018-08-28T03:19:24.335Z,69.35
2018-08-28T03:21:52.892Z,69.92
2018-08-28T03:24:21.583Z,69.81
2018-08-28T03:26:49.900Z,69.89
2018-08-28T03:29:18.471Z,69.95
2018-08-28T03:31:46.704Z,69.99
2018-08-28T03:34:14.697Z,69.58
2018-08-28T03:36:42.820Z,69.84
2018-08-28T03:39:11.113Z,69.98
2018-08-28T03:41:39.347Z,69.64
2018-08-28T03:44:07.357Z,69.44
2018-08-28T03:46:35.553Z,69.50
2018-08-28T03:49:03.587Z,69.71
2018-08-28T03:51:31.741Z,69.76
2018-08-28T03:53:59.754Z,69.64
2018-08-28T03:56:27.757Z,69.49
2018-08-28T03:58:55.838Z,69.32
2018-08-28T04:01:23.912Z,69.34
2018-08-28T04:03:52.183Z,69.78
2018-08-28T04:06:20.398Z,69.95
2018-08-28T04:08:48.428Z,69.84
2018-08-28T04:11:17.422Z,69.98
2018-08-28T04:13:46.099Z,70.04
2018-08-28T04:16:14.112Z,70.32
2018-08-28T04:18:42.173Z,70.90
2018-08-28T04:21:10.187Z,70.59
2018-08-28T04:23:38.327Z,70.27
2018-08-28T04:26:06.382Z,69.62
2018-08-28T04:28:34.549Z,70.30
2018-08-28T04:31:02.615Z,70.47
2018-08-28T04:33:30.696Z,70.20
2018-08-28T04:35:58.678Z,70.28
2018-08-28T04:38:27.807Z,70.62
2018-08-28T04:40:55.884Z,70.46
2018-08-28T04:43:23.899Z,71.25
2018-08-28T04:45:51.916Z,70.84
2018-08-28T04:48:20.193Z,70.90
2018-08-28T04:50:48.259Z,70.27
2018-08-28T04:53:16.609Z,70.05
2018-08-28T04:55:44.716Z,70.88
2018-08-28T04:58:13.229Z,70.54
2018-08-28T05:00:41.280Z,71.18
2018-08-28T05:03:09.736Z,71.24
2018-08-28T05:05:38.266Z,70.53
2018-08-28T05:08:06.558Z,70.62
2018-08-28T05:10:34.687Z,70.53
2018-08-28T05:13:03.083Z,70.31
2018-08-28T05:15:37.741Z,70.69
2018-08-28T05:18:06.867Z,70.14
2018-08-28T05:20:35.188Z,70.51
2018-08-28T05:23:14.993Z,69.87
2018-08-28T05:25:43.198Z,69.46
2018-08-28T05:45:24.538Z,67.87
2018-08-28T05:47:52.780Z,67.75
2018-08-28T05:56:06.980Z,66.77
2018-08-28T05:58:36.352Z,66.55
2018-08-28T06:01:04.496Z,66.96
2018-08-28T06:03:33.168Z,66.45
2018-08-28T06:06:01.282Z,66.52
2018-08-28T06:08:36.123Z,66.70
2018-08-28T06:11:04.241Z,67.27
2018-08-28T06:13:33.885Z,67.07
2018-08-28T06:16:02.077Z,67.36
2018-08-28T06:18:30.414Z,66.46
2018-08-28T06:20:59.220Z,67.03
2018-08-28T06:23:27.338Z,67.09
2018-08-28T06:25:55.478Z,66.89
2018-08-28T06:28:23.723Z,66.83
2018-08-28T06:30:51.817Z,65.95
2018-08-28T06:33:20.028Z,66.22
2018-08-28T06:35:48.109Z,65.54
2018-08-28T06:38:16.099Z,65.48
2018-08-28T06:40:44.244Z,65.84
2018-08-28T06:43:12.407Z,65.07
2018-08-28T06:45:40.631Z,64.83
2018-08-28T06:48:09.759Z,64.63
2018-08-28T06:50:37.949Z,63.78
2018-08-28T06:53:06.145Z,64.23
2018-08-28T06:55:34.358Z,63.58
2018-08-28T06:58:02.311Z,64.43
2018-08-28T07:00:30.444Z,64.13
2018-08-28T07:02:58.516Z,63.40
2018-08-28T07:05:26.968Z,63.99
2018-08-28T07:07:55.152Z,64.78
2018-08-28T07:10:24.347Z,64.30
2018-08-28T07:12:52.522Z,64.62
2018-08-28T07:15:20.631Z,64.16
2018-08-28T07:17:48.791Z,62.98
2018-08-28T07:20:16.925Z,64.04
2018-08-28T07:22:45.167Z,63.48
2018-08-28T07:25:13.357Z,63.13
2018-08-28T07:27:41.540Z,63.00
2018-08-28T07:30:09.686Z,63.10
2018-08-28T07:32:37.847Z,63.27
2018-08-28T07:35:06.169Z,63.69
2018-08-28T07:37:34.352Z,64.50
2018-08-28T07:40:02.569Z,64.33
2018-08-28T07:42:30.659Z,63.69
2018-08-28T07:44:58.813Z,63.32
2018-08-28T07:47:26.938Z,63.46
2018-08-28T07:49:55.021Z,62.84
2018-08-28T07:52:23.158Z,62.27
2018-08-28T07:54:51.374Z,61.31
2018-08-28T07:57:19.546Z,61.42
2018-08-28T07:59:47.752Z,61.07
2018-08-28T08:02:15.934Z,62.33
2018-08-28T08:04:44.146Z,63.43
2018-08-28T08:07:12.444Z,62.96
2018-08-28T08:09:40.824Z,61.53
2018-08-28T08:12:08.884Z,62.95
2018-08-28T08:14:37.105Z,61.96
2018-08-28T08:17:05.289Z,60.88
2018-08-28T08:19:33.459Z,59.99
2018-08-28T08:22:01.600Z,60.09
2018-08-28T08:24:29.788Z,59.63
2018-08-28T08:26:58.147Z,57.67
2018-08-28T08:29:26.399Z,58.36
2018-08-28T08:31:54.607Z,58.16
2018-08-28T08:34:22.747Z,57.36
2018-08-28T08:36:51.052Z,59.05
2018-08-28T08:39:19.020Z,58.42
2018-08-28T08:41:47.060Z,58.54
2018-08-28T08:44:15.028Z,56.25
2018-08-28T08:46:42.978Z,57.90
2018-08-28T08:49:10.912Z,57.45
2018-08-28T08:51:38.894Z,57.83
2018-08-28T08:54:06.834Z,57.38
2018-08-28T08:56:34.997Z,57.11
2018-08-28T08:59:06.951Z,56.63
2018-08-28T09:01:34.974Z,53.77
2018-08-28T09:04:03.090Z,53.60
2018-08-28T09:06:31.193Z,53.97
2018-08-28T09:08:59.245Z,53.06
2018-08-28T09:11:27.235Z,52.45
2018-08-28T09:13:55.758Z,51.75
2018-08-28T09:16:23.697Z,51.80
2018-08-28T09:18:52.175Z,52.08
2018-08-28T09:21:20.094Z,55.32
2018-08-28T09:23:48.062Z,53.91
2018-08-28T09:26:16.076Z,53.96
2018-08-28T09:28:43.959Z,54.24
2018-08-28T09:31:11.938Z,53.08
2018-08-28T09:33:39.858Z,51.77
2018-08-28T09:36:07.950Z,49.27
2018-08-28T09:38:35.899Z,50.40
2018-08-28T09:41:03.940Z,52.57
2018-08-28T09:43:31.939Z,52.69
2018-08-28T09:45:59.920Z,51.89
2018-08-28T09:51:20.078Z,51.84
2018-08-28T09:53:53.434Z,51.77
2018-08-28T10:04:58.962Z,50.92
2018-08-28T10:33:21.166Z,48.89
2018-08-28T10:41:34.012Z,50.59
2018-08-28T11:27:29.684Z,52.67
2018-08-28T11:29:57.811Z,53.19
2018-08-28T11:32:26.259Z,51.99
2018-08-28T11:34:54.461Z,52.46
2018-08-28T11:37:22.679Z,52.80
2018-08-28T11:39:50.691Z,52.91
2018-08-28T11:42:18.833Z,54.29
2018-08-28T11:44:46.924Z,53.07
2018-08-28T11:47:15.376Z,51.70
2018-08-28T11:49:43.408Z,50.38
2018-08-28T11:52:12.502Z,50.81
2018-08-28T11:54:40.584Z,51.01
2018-08-28T11:57:08.665Z,50.36
2018-08-28T11:59:36.736Z,49.72
2018-08-28T12:02:04.931Z,50.68
2018-08-28T12:04:33.078Z,49.70
2018-08-28T12:07:01.412Z,49.62
2018-08-28T12:09:29.643Z,50.94
2018-08-28T12:11:57.788Z,50.41
2018-08-28T12:14:25.943Z,50.39
2018-08-28T12:16:54.313Z,50.55
2018-08-28T12:19:22.336Z,49.69
2018-08-28T12:21:50.816Z,51.18
2018-08-28T12:24:19.213Z,51.46
2018-08-28T12:28:00.622Z,50.70
2018-08-28T12:30:28.835Z,50.91
2018-08-28T12:32:57.021Z,50.40
2018-08-28T12:38:18.021Z,51.14
2018-08-28T12:44:12.979Z,50.36
2018-08-28T12:49:37.295Z,49.74
2018-08-28T13:01:09.226Z,47.25
2018-08-28T13:09:19.226Z,49.01
2018-08-28T13:11:47.141Z,48.80
2018-08-28T13:14:15.870Z,48.83
2018-08-28T13:16:46.774Z,46.32
2018-08-28T13:19:14.925Z,47.80
2018-08-28T13:21:42.853Z,49.08
2018-08-28T13:24:10.816Z,48.48
2018-08-28T13:26:38.980Z,48.85
2018-08-28T13:29:06.932Z,48.71
2018-08-28T13:31:39.981Z,47.63
2018-08-28T13:34:26.625Z,47.35
2018-08-28T13:36:57.018Z,47.60
2018-08-28T13:42:11.224Z,48.28
2018-08-28T13:44:39.428Z,47.88
2018-08-28T13:47:07.533Z,48.67
2018-08-28T13:49:35.619Z,47.83
2018-08-28T13:52:03.688Z,48.02
2018-08-28T13:54:40.446Z,47.85
2018-08-28T13:57:08.446Z,49.03
2018-08-28T13:59:36.314Z,49.04
2018-08-28T14:02:05.490Z,49.35
2018-08-28T14:04:46.387Z,47.79
2018-08-28T14:07:14.316Z,48.17
2018-08-28T14:09:42.373Z,48.84
2018-08-28T14:12:12.498Z,48.81
2018-08-28T14:14:40.576Z,48.49
2018-08-28T14:17:08.495Z,47.99
2018-08-28T14:19:36.498Z,47.79
2018-08-28T14:22:04.447Z,47.68
2018-08-28T14:24:32.590Z,47.21
2018-08-28T14:27:01.245Z,46.98
2018-08-28T14:32:21.894Z,47.27
2018-08-28T14:34:50.854Z,46.79
2018-08-28T14:37:18.854Z,46.54
2018-08-28T14:39:46.900Z,45.76
2018-08-28T14:42:14.884Z,46.19
2018-08-28T14:44:53.642Z,45.15
2018-08-28T14:47:22.441Z,46.42
2018-08-28T14:49:50.579Z,46.52
2018-08-28T14:52:18.552Z,45.98
2018-08-28T14:54:46.539Z,45.91
2018-08-28T14:57:15.535Z,45.93
2018-08-28T14:59:43.636Z,47.54
2018-08-28T15:02:12.770Z,47.99
2018-08-28T15:05:24.132Z,48.09
2018-08-28T15:07:52.722Z,48.87
2018-08-28T15:10:21.448Z,48.44
2018-08-28T15:15:43.054Z,49.24
2018-08-28T15:26:51.395Z,49.24
2018-08-28T15:47:52.139Z,48.62
2018-08-28T15:50:20.425Z,47.45
2018-08-28T15:56:14.370Z,48.63
2018-08-28T15:58:42.291Z,47.74
2018-08-28T16:01:10.282Z,48.07
2018-08-28T16:04:01.834Z,48.63
2018-08-28T16:06:30.670Z,47.54
2018-08-28T16:09:10.346Z,47.58
2018-08-28T16:17:45.330Z,48.49
2018-08-28T16:25:59.356Z,47.68
2018-08-28T16:28:28.061Z,48.49
2018-08-28T16:33:51.638Z,49.18
2018-08-28T16:36:32.383Z,48.71
2018-08-28T16:56:17.243Z,48.25
2018-08-28T18:56:43.984Z,59.71
2018-08-28T22:11:08.503Z,75.46
2018-08-28T22:25:12.785Z,71.89
2018-08-28T22:30:33.339Z,72.95
2018-08-28T22:39:34.055Z,73.92
2018-08-28T22:47:47.980Z,73.22
2018-08-28T22:50:16.910Z,73.86
2018-08-28T23:07:09.993Z,73.91
2018-08-28T23:15:24.354Z,72.97
2018-08-28T23:17:52.523Z,72.37
2018-08-28T23:20:20.754Z,72.70
2018-08-28T23:22:50.006Z,72.19
2018-08-28T23:25:19.035Z,71.92
2018-08-28T23:27:49.110Z,72.48
